CYHD

Dryden Regional Airport

Dryden, Ontario, Canada
METAR CYHD 201502Z AUTO 03008KT 1 3/4SM -SN BKN024 OVC035 M18/M21 A2997 RMK SLP193
Observed Flight Rules
Feb-20 @ 15:02 UTC (22 hours ago) Instrument Flight Rules
Wind Visibility Clouds Conditions
30° at 8 knots 1 3/4 miles
  • Broken at 2,400' AGL
  • Overcast at 3,500' AGL
  • Light Snow
Temperatures Readings
Current -18°C / 0°F
Dewpoint -21°C / -6°F
Humidity 78%
Altimeter 29.97" Hg
Pressure 1019.3 hPa
Elevation 413
METAR CYHD 201502Z AUTO 03008KT 1 3/4SM -SN BKN024 OVC035 M18/M21 A2997 RMK SLP193
Observed Flight Rules
Feb-20 @ 15:02 UTC
(22 hours ago)
IFR
Wind Visibility
30° at 8 knots 1 3/4 miles
Clouds
  • Broken at 2,400' AGL
  • Overcast at 3,500' AGL
Conditions
  • Light Snow
Temperature Dewpoint
-18°C / 0°F -21°C / -6°F
Humidity Altimeter Pressure
78% 29.97" Hg 1019.3 hPa